sensor_id;sensor_type;location;lat;lon;timestamp;temperature;humidity
4090;DHT22;2059;48.538;12.146;2023-06-01T00:03:47;19.10;74.10
4090;DHT22;2059;48.538;12.146;2023-06-01T00:08:48;19.10;74.20
4090;DHT22;2059;48.538;12.146;2023-06-01T00:13:52;19.10;73.50
4090;DHT22;2059;48.538;12.146;2023-06-01T00:18:54;19.00;73.70
4090;DHT22;2059;48.538;12.146;2023-06-01T00:23:56;18.90;73.60
4090;DHT22;2059;48.538;12.146;2023-06-01T00:29:00;18.70;73.80
4090;DHT22;2059;48.538;12.146;2023-06-01T00:34:01;18.80;74.40
4090;DHT22;2059;48.538;12.146;2023-06-01T00:39:03;18.90;74.40
4090;DHT22;2059;48.538;12.146;2023-06-01T00:44:06;18.70;74.70
4090;DHT22;2059;48.538;12.146;2023-06-01T00:49:08;18.70;74.90
4090;DHT22;2059;48.538;12.146;2023-06-01T00:54:10;18.60;74.80
4090;DHT22;2059;48.538;12.146;2023-06-01T00:59:13;18.50;74.60
4090;DHT22;2059;48.538;12.146;2023-06-01T01:04:15;18.50;75.00
4090;DHT22;2059;48.538;12.146;2023-06-01T01:09:32;18.40;75.00
4090;DHT22;2059;48.538;12.146;2023-06-01T01:14:40;18.30;75.30
4090;DHT22;2059;48.538;12.146;2023-06-01T01:19:53;18.30;75.50
4090;DHT22;2059;48.538;12.146;2023-06-01T01:25:13;18.20;75.90
4090;DHT22;2059;48.538;12.146;2023-06-01T01:30:21;18.20;76.10
4090;DHT22;2059;48.538;12.146;2023-06-01T01:35:25;18.20;75.80
4090;DHT22;2059;48.538;12.146;2023-06-01T01:40:28;18.20;75.80
4090;DHT22;2059;48.538;12.146;2023-06-01T01:45:31;18.10;76.00
4090;DHT22;2059;48.538;12.146;2023-06-01T01:50:38;18.20;77.00
4090;DHT22;2059;48.538;12.146;2023-06-01T01:55:40;18.10;76.50
4090;DHT22;2059;48.538;12.146;2023-06-01T02:00:44;18.10;76.50
4090;DHT22;2059;48.538;12.146;2023-06-01T02:05:46;18.10;76.20
4090;DHT22;2059;48.538;12.146;2023-06-01T02:10:48;18.00;76.20
4090;DHT22;2059;48.538;12.146;2023-06-01T02:15:51;18.10;76.40
4090;DHT22;2059;48.538;12.146;2023-06-01T02:20:53;18.10;76.20
4090;DHT22;2059;48.538;12.146;2023-06-01T02:25:54;18.00;76.30
4090;DHT22;2059;48.538;12.146;2023-06-01T02:30:57;18.10;76.50
4090;DHT22;2059;48.538;12.146;2023-06-01T02:35:59;17.90;76.50
4090;DHT22;2059;48.538;12.146;2023-06-01T02:41:01;17.90;76.80
4090;DHT22;2059;48.538;12.146;2023-06-01T02:46:04;17.80;76.70
4090;DHT22;2059;48.538;12.146;2023-06-01T02:51:06;17.70;76.40
4090;DHT22;2059;48.538;12.146;2023-06-01T02:56:08;17.60;76.90
4090;DHT22;2059;48.538;12.146;2023-06-01T03:01:11;17.70;76.80
4090;DHT22;2059;48.538;12.146;2023-06-01T03:06:13;17.70;76.70
4090;DHT22;2059;48.538;12.146;2023-06-01T03:11:18;17.60;76.90
4090;DHT22;2059;48.538;12.146;2023-06-01T03:16:21;17.60;77.10
4090;DHT22;2059;48.538;12.146;2023-06-01T03:21:23;17.60;76.80
4090;DHT22;2059;48.538;12.146;2023-06-01T03:26:25;17.70;76.80
4090;DHT22;2059;48.538;12.146;2023-06-01T03:31:28;17.50;76.60
4090;DHT22;2059;48.538;12.146;2023-06-01T03:36:31;17.50;77.10
4090;DHT22;2059;48.538;12.146;2023-06-01T03:41:33;17.50;77.50
4090;DHT22;2059;48.538;12.146;2023-06-01T03:46:36;17.50;77.20
4090;DHT22;2059;48.538;12.146;2023-06-01T03:51:38;17.50;76.50
4090;DHT22;2059;48.538;12.146;2023-06-01T03:56:40;17.50;76.70
4090;DHT22;2059;48.538;12.146;2023-06-01T04:01:43;17.60;76.60
4090;DHT22;2059;48.538;12.146;2023-06-01T04:06:48;17.50;77.10
4090;DHT22;2059;48.538;12.146;2023-06-01T04:11:50;17.60;77.70
4090;DHT22;2059;48.538;12.146;2023-06-01T04:16:53;17.60;77.30
4090;DHT22;2059;48.538;12.146;2023-06-01T04:21:56;17.60;78.00
4090;DHT22;2059;48.538;12.146;2023-06-01T04:26:58;17.50;78.20
4090;DHT22;2059;48.538;12.146;2023-06-01T04:32:01;17.60;78.70
4090;DHT22;2059;48.538;12.146;2023-06-01T04:37:03;17.60;78.60
4090;DHT22;2059;48.538;12.146;2023-06-01T04:42:06;17.60;78.60
4090;DHT22;2059;48.538;12.146;2023-06-01T04:47:10;17.70;78.90
4090;DHT22;2059;48.538;12.146;2023-06-01T04:52:11;17.70;78.70
4090;DHT22;2059;48.538;12.146;2023-06-01T04:57:13;17.90;77.70
4090;DHT22;2059;48.538;12.146;2023-06-01T05:02:17;18.00;76.70
4090;DHT22;2059;48.538;12.146;2023-06-01T05:07:18;17.90;77.90
4090;DHT22;2059;48.538;12.146;2023-06-01T05:12:21;18.00;76.10
4090;DHT22;2059;48.538;12.146;2023-06-01T05:17:24;17.90;74.30
4090;DHT22;2059;48.538;12.146;2023-06-01T05:22:26;17.90;76.20
4090;DHT22;2059;48.538;12.146;2023-06-01T05:27:28;18.00;77.20
4090;DHT22;2059;48.538;12.146;2023-06-01T05:32:31;18.10;77.20
4090;DHT22;2059;48.538;12.146;2023-06-01T05:37:33;18.10;75.40
4090;DHT22;2059;48.538;12.146;2023-06-01T05:42:35;18.20;76.20
4090;DHT22;2059;48.538;12.146;2023-06-01T05:47:38;18.20;75.90
4090;DHT22;2059;48.538;12.146;2023-06-01T05:52:40;18.50;75.00
4090;DHT22;2059;48.538;12.146;2023-06-01T05:57:43;18.50;75.00
4090;DHT22;2059;48.538;12.146;2023-06-01T06:02:47;18.60;73.50
4090;DHT22;2059;48.538;12.146;2023-06-01T06:07:49;18.70;75.00
4090;DHT22;2059;48.538;12.146;2023-06-01T06:12:51;18.80;74.40
4090;DHT22;2059;48.538;12.146;2023-06-01T06:17:54;19.10;72.50
4090;DHT22;2059;48.538;12.146;2023-06-01T06:22:56;19.30;71.80
4090;DHT22;2059;48.538;12.146;2023-06-01T06:27:57;19.40;72.10
4090;DHT22;2059;48.538;12.146;2023-06-01T06:33:00;19.50;71.50
4090;DHT22;2059;48.538;12.146;2023-06-01T06:38:02;19.70;72.20
4090;DHT22;2059;48.538;12.146;2023-06-01T06:43:04;19.80;70.70
4090;DHT22;2059;48.538;12.146;2023-06-01T06:48:07;20.10;70.90
4090;DHT22;2059;48.538;12.146;2023-06-01T06:53:09;20.30;69.80
4090;DHT22;2059;48.538;12.146;2023-06-01T06:58:11;20.50;69.90
4090;DHT22;2059;48.538;12.146;2023-06-01T07:03:15;20.60;69.60
4090;DHT22;2059;48.538;12.146;2023-06-01T07:08:17;21.20;67.10
4090;DHT22;2059;48.538;12.146;2023-06-01T07:13:20;21.40;67.20
4090;DHT22;2059;48.538;12.146;2023-06-01T07:18:23;21.40;66.60
4090;DHT22;2059;48.538;12.146;2023-06-01T07:23:25;21.60;67.30
4090;DHT22;2059;48.538;12.146;2023-06-01T07:28:27;21.80;66.80
4090;DHT22;2059;48.538;12.146;2023-06-01T07:33:30;22.00;66.50
4090;DHT22;2059;48.538;12.146;2023-06-01T07:38:34;22.10;66.40
4090;DHT22;2059;48.538;12.146;2023-06-01T07:43:36;22.40;66.90
4090;DHT22;2059;48.538;12.146;2023-06-01T07:48:39;22.60;66.90
4090;DHT22;2059;48.538;12.146;2023-06-01T07:53:41;22.70;66.30
4090;DHT22;2059;48.538;12.146;2023-06-01T07:58:42;22.90;66.60
4090;DHT22;2059;48.538;12.146;2023-06-01T08:03:46;23.10;66.20
4090;DHT22;2059;48.538;12.146;2023-06-01T08:08:48;23.30;66.30
4090;DHT22;2059;48.538;12.146;2023-06-01T08:13:51;23.50;65.40
4090;DHT22;2059;48.538;12.146;2023-06-01T08:18:54;23.70;65.00
4090;DHT22;2059;48.538;12.146;2023-06-01T08:23:57;24.10;64.80
4090;DHT22;2059;48.538;12.146;2023-06-01T08:28:59;24.30;64.20
4090;DHT22;2059;48.538;12.146;2023-06-01T08:34:02;24.30;64.80
4090;DHT22;2059;48.538;12.146;2023-06-01T08:39:19;24.70;64.00
4090;DHT22;2059;48.538;12.146;2023-06-01T08:44:22;24.80;63.70
4090;DHT22;2059;48.538;12.146;2023-06-01T08:49:30;24.90;62.50
4090;DHT22;2059;48.538;12.146;2023-06-01T08:54:32;25.20;63.40
4090;DHT22;2059;48.538;12.146;2023-06-01T08:59:35;25.50;62.90
4090;DHT22;2059;48.538;12.146;2023-06-01T09:04:39;25.60;60.90
4090;DHT22;2059;48.538;12.146;2023-06-01T09:09:44;25.70;60.70
4090;DHT22;2059;48.538;12.146;2023-06-01T09:14:47;25.80;61.60
4090;DHT22;2059;48.538;12.146;2023-06-01T09:19:54;26.10;58.10
4090;DHT22;2059;48.538;12.146;2023-06-01T09:24:57;26.30;58.90
4090;DHT22;2059;48.538;12.146;2023-06-01T09:29:59;26.50;56.30
4090;DHT22;2059;48.538;12.146;2023-06-01T09:35:03;26.30;55.70
4090;DHT22;2059;48.538;12.146;2023-06-01T09:40:17;26.20;56.50
4090;DHT22;2059;48.538;12.146;2023-06-01T09:45:20;26.30;54.80
4090;DHT22;2059;48.538;12.146;2023-06-01T09:50:34;26.20;55.10
4090;DHT22;2059;48.538;12.146;2023-06-01T09:55:56;26.30;54.20
4090;DHT22;2059;48.538;12.146;2023-06-01T10:00:59;26.10;54.20
4090;DHT22;2059;48.538;12.146;2023-06-01T10:06:05;26.20;55.50
4090;DHT22;2059;48.538;12.146;2023-06-01T10:11:07;26.20;53.60
4090;DHT22;2059;48.538;12.146;2023-06-01T10:16:10;26.10;53.90
4090;DHT22;2059;48.538;12.146;2023-06-01T10:21:14;26.10;53.90
4090;DHT22;2059;48.538;12.146;2023-06-01T10:26:17;26.30;52.90
4090;DHT22;2059;48.538;12.146;2023-06-01T10:31:37;26.40;53.60
4090;DHT22;2059;48.538;12.146;2023-06-01T10:37:12;26.60;51.70
4090;DHT22;2059;48.538;12.146;2023-06-01T10:42:36;26.80;52.10
4090;DHT22;2059;48.538;12.146;2023-06-01T10:47:46;26.90;54.40
4090;DHT22;2059;48.538;12.146;2023-06-01T10:52:49;27.00;55.50
4090;DHT22;2059;48.538;12.146;2023-06-01T10:58:21;27.00;55.50
4090;DHT22;2059;48.538;12.146;2023-06-01T11:03:42;27.20;56.10
4090;DHT22;2059;48.538;12.146;2023-06-01T11:08:55;27.50;53.20
4090;DHT22;2059;48.538;12.146;2023-06-01T11:14:11;27.30;54.30
4090;DHT22;2059;48.538;12.146;2023-06-01T11:19:17;27.30;54.80
4090;DHT22;2059;48.538;12.146;2023-06-01T11:24:23;27.50;54.70
4090;DHT22;2059;48.538;12.146;2023-06-01T11:29:26;27.60;53.10
4090;DHT22;2059;48.538;12.146;2023-06-01T11:34:31;27.70;52.30
4090;DHT22;2059;48.538;12.146;2023-06-01T11:39:35;27.80;52.40
4090;DHT22;2059;48.538;12.146;2023-06-01T11:44:39;27.90;52.00
4090;DHT22;2059;48.538;12.146;2023-06-01T11:49:41;27.70;51.30
4090;DHT22;2059;48.538;12.146;2023-06-01T11:54:46;27.70;52.00
4090;DHT22;2059;48.538;12.146;2023-06-01T11:59:49;27.60;52.50
4090;DHT22;2059;48.538;12.146;2023-06-01T12:04:55;27.90;51.70
4090;DHT22;2059;48.538;12.146;2023-06-01T12:09:59;28.00;52.30
4090;DHT22;2059;48.538;12.146;2023-06-01T12:15:02;28.30;51.60
4090;DHT22;2059;48.538;12.146;2023-06-01T12:20:05;28.10;51.40
4090;DHT22;2059;48.538;12.146;2023-06-01T12:25:09;27.90;51.90
4090;DHT22;2059;48.538;12.146;2023-06-01T12:30:20;27.80;52.10
4090;DHT22;2059;48.538;12.146;2023-06-01T12:35:22;27.90;52.30
4090;DHT22;2059;48.538;12.146;2023-06-01T12:40:26;28.00;51.40
4090;DHT22;2059;48.538;12.146;2023-06-01T12:45:34;27.80;51.70
4090;DHT22;2059;48.538;12.146;2023-06-01T12:50:43;27.70;53.50
4090;DHT22;2059;48.538;12.146;2023-06-01T12:55:46;27.70;51.50
4090;DHT22;2059;48.538;12.146;2023-06-01T13:00:48;27.70;53.70
4090;DHT22;2059;48.538;12.146;2023-06-01T13:05:50;27.70;52.60
4090;DHT22;2059;48.538;12.146;2023-06-01T13:10:53;27.60;53.40
4090;DHT22;2059;48.538;12.146;2023-06-01T13:15:55;27.80;52.00
4090;DHT22;2059;48.538;12.146;2023-06-01T13:20:57;27.80;51.00
4090;DHT22;2059;48.538;12.146;2023-06-01T13:26:00;27.80;53.10
4090;DHT22;2059;48.538;12.146;2023-06-01T13:31:02;27.90;53.00
4090;DHT22;2059;48.538;12.146;2023-06-01T13:36:04;28.20;52.70
4090;DHT22;2059;48.538;12.146;2023-06-01T13:41:08;28.30;52.90
4090;DHT22;2059;48.538;12.146;2023-06-01T13:46:10;28.20;52.80
4090;DHT22;2059;48.538;12.146;2023-06-01T13:51:11;28.10;49.20
4090;DHT22;2059;48.538;12.146;2023-06-01T13:56:14;27.90;51.70
4090;DHT22;2059;48.538;12.146;2023-06-01T14:01:16;27.80;52.70
4090;DHT22;2059;48.538;12.146;2023-06-01T14:06:18;27.80;51.60
4090;DHT22;2059;48.538;12.146;2023-06-01T14:11:21;27.90;50.90
4090;DHT22;2059;48.538;12.146;2023-06-01T14:16:23;27.80;50.00
4090;DHT22;2059;48.538;12.146;2023-06-01T14:21:25;27.90;50.40
4090;DHT22;2059;48.538;12.146;2023-06-01T14:26:28;28.00;51.10
4090;DHT22;2059;48.538;12.146;2023-06-01T14:31:30;28.20;50.80
4090;DHT22;2059;48.538;12.146;2023-06-01T14:36:31;28.50;48.70
4090;DHT22;2059;48.538;12.146;2023-06-01T14:41:35;28.60;49.90
4090;DHT22;2059;48.538;12.146;2023-06-01T14:46:36;28.70;47.10
4090;DHT22;2059;48.538;12.146;2023-06-01T14:51:38;28.80;47.40
4090;DHT22;2059;48.538;12.146;2023-06-01T14:56:42;29.00;47.10
4090;DHT22;2059;48.538;12.146;2023-06-01T15:01:43;29.20;42.30
4090;DHT22;2059;48.538;12.146;2023-06-01T15:06:46;29.10;46.10
4090;DHT22;2059;48.538;12.146;2023-06-01T15:11:49;28.90;46.10
4090;DHT22;2059;48.538;12.146;2023-06-01T15:16:50;28.60;46.10
4090;DHT22;2059;48.538;12.146;2023-06-01T15:21:52;28.60;45.70
4090;DHT22;2059;48.538;12.146;2023-06-01T15:26:55;28.60;45.80
4090;DHT22;2059;48.538;12.146;2023-06-01T15:31:57;28.70;47.70
4090;DHT22;2059;48.538;12.146;2023-06-01T15:36:59;29.00;43.60
4090;DHT22;2059;48.538;12.146;2023-06-01T15:42:04;29.10;46.40
4090;DHT22;2059;48.538;12.146;2023-06-01T15:47:07;29.40;46.40
4090;DHT22;2059;48.538;12.146;2023-06-01T15:52:09;29.80;43.10
4090;DHT22;2059;48.538;12.146;2023-06-01T15:57:12;30.10;42.60
4090;DHT22;2059;48.538;12.146;2023-06-01T16:02:14;30.70;44.20
4090;DHT22;2059;48.538;12.146;2023-06-01T16:07:16;31.80;43.60
4090;DHT22;2059;48.538;12.146;2023-06-01T16:12:20;33.70;41.60
4090;DHT22;2059;48.538;12.146;2023-06-01T16:17:22;34.50;39.30
4090;DHT22;2059;48.538;12.146;2023-06-01T16:22:23;35.00;38.50
4090;DHT22;2059;48.538;12.146;2023-06-01T16:27:27;37.70;35.30
4090;DHT22;2059;48.538;12.146;2023-06-01T16:32:29;41.00;32.00
4090;DHT22;2059;48.538;12.146;2023-06-01T16:37:36;42.70;30.00
4090;DHT22;2059;48.538;12.146;2023-06-01T16:42:40;42.70;30.80
4090;DHT22;2059;48.538;12.146;2023-06-01T16:47:42;41.80;28.80
4090;DHT22;2059;48.538;12.146;2023-06-01T16:52:44;40.00;30.10
4090;DHT22;2059;48.538;12.146;2023-06-01T16:57:48;37.30;32.00
4090;DHT22;2059;48.538;12.146;2023-06-01T17:02:50;35.60;35.50
4090;DHT22;2059;48.538;12.146;2023-06-01T17:07:56;34.60;34.90
4090;DHT22;2059;48.538;12.146;2023-06-01T17:13:00;32.70;38.00
4090;DHT22;2059;48.538;12.146;2023-06-01T17:18:02;31.30;39.70
4090;DHT22;2059;48.538;12.146;2023-06-01T17:23:05;30.10;41.20
4090;DHT22;2059;48.538;12.146;2023-06-01T17:28:08;29.30;41.20
4090;DHT22;2059;48.538;12.146;2023-06-01T17:33:10;29.00;40.60
4090;DHT22;2059;48.538;12.146;2023-06-01T17:38:13;28.20;41.90
4090;DHT22;2059;48.538;12.146;2023-06-01T17:43:18;27.80;42.50
4090;DHT22;2059;48.538;12.146;2023-06-01T17:48:24;27.40;42.80
4090;DHT22;2059;48.538;12.146;2023-06-01T17:53:27;27.10;43.40
4090;DHT22;2059;48.538;12.146;2023-06-01T17:58:37;26.80;44.40
4090;DHT22;2059;48.538;12.146;2023-06-01T18:03:39;26.60;44.70
4090;DHT22;2059;48.538;12.146;2023-06-01T18:08:41;26.30;44.30
4090;DHT22;2059;48.538;12.146;2023-06-01T18:13:45;26.10;44.60
4090;DHT22;2059;48.538;12.146;2023-06-01T18:18:52;26.00;45.50
4090;DHT22;2059;48.538;12.146;2023-06-01T18:23:56;25.80;45.60
4090;DHT22;2059;48.538;12.146;2023-06-01T18:28:59;25.60;46.10
4090;DHT22;2059;48.538;12.146;2023-06-01T18:34:01;25.50;47.20
4090;DHT22;2059;48.538;12.146;2023-06-01T18:39:04;25.30;48.40
4090;DHT22;2059;48.538;12.146;2023-06-01T18:44:14;25.20;48.50
4090;DHT22;2059;48.538;12.146;2023-06-01T18:49:17;25.10;49.90
4090;DHT22;2059;48.538;12.146;2023-06-01T18:54:26;24.70;50.50
4090;DHT22;2059;48.538;12.146;2023-06-01T18:59:34;24.50;51.60
4090;DHT22;2059;48.538;12.146;2023-06-01T19:04:38;24.30;51.80
4090;DHT22;2059;48.538;12.146;2023-06-01T19:09:40;24.10;53.00
4090;DHT22;2059;48.538;12.146;2023-06-01T19:14:43;23.90;53.60
4090;DHT22;2059;48.538;12.146;2023-06-01T19:19:45;23.80;54.70
4090;DHT22;2059;48.538;12.146;2023-06-01T19:24:47;23.80;55.70
4090;DHT22;2059;48.538;12.146;2023-06-01T19:29:51;23.60;56.00
4090;DHT22;2059;48.538;12.146;2023-06-01T19:34:53;23.60;56.70
4090;DHT22;2059;48.538;12.146;2023-06-01T19:39:55;23.30;57.90
4090;DHT22;2059;48.538;12.146;2023-06-01T19:44:59;23.10;58.90
4090;DHT22;2059;48.538;12.146;2023-06-01T19:50:05;23.00;59.10
4090;DHT22;2059;48.538;12.146;2023-06-01T19:55:12;22.90;59.40
4090;DHT22;2059;48.538;12.146;2023-06-01T20:00:15;22.80;59.50
4090;DHT22;2059;48.538;12.146;2023-06-01T20:05:19;22.90;59.50
4090;DHT22;2059;48.538;12.146;2023-06-01T20:10:23;22.60;60.90
4090;DHT22;2059;48.538;12.146;2023-06-01T20:15:29;22.60;61.60
4090;DHT22;2059;48.538;12.146;2023-06-01T20:20:32;22.50;62.00
4090;DHT22;2059;48.538;12.146;2023-06-01T20:25:36;22.40;62.70
4090;DHT22;2059;48.538;12.146;2023-06-01T20:31:04;22.30;63.60
4090;DHT22;2059;48.538;12.146;2023-06-01T20:36:07;22.20;64.30
4090;DHT22;2059;48.538;12.146;2023-06-01T20:41:11;22.10;64.80
4090;DHT22;2059;48.538;12.146;2023-06-01T20:46:15;21.90;65.40
4090;DHT22;2059;48.538;12.146;2023-06-01T20:51:23;21.70;66.60
4090;DHT22;2059;48.538;12.146;2023-06-01T20:56:31;21.70;65.40
4090;DHT22;2059;48.538;12.146;2023-06-01T21:01:35;21.50;65.00
4090;DHT22;2059;48.538;12.146;2023-06-01T21:06:39;21.50;65.70
4090;DHT22;2059;48.538;12.146;2023-06-01T21:11:41;21.40;69.40
4090;DHT22;2059;48.538;12.146;2023-06-01T21:16:46;21.40;70.30
4090;DHT22;2059;48.538;12.146;2023-06-01T21:21:47;21.30;68.80
4090;DHT22;2059;48.538;12.146;2023-06-01T21:26:49;21.30;68.60
4090;DHT22;2059;48.538;12.146;2023-06-01T21:31:52;21.20;69.00
4090;DHT22;2059;48.538;12.146;2023-06-01T21:36:54;21.10;68.50
4090;DHT22;2059;48.538;12.146;2023-06-01T21:41:58;21.00;68.20
4090;DHT22;2059;48.538;12.146;2023-06-01T21:47:01;20.90;68.20
4090;DHT22;2059;48.538;12.146;2023-06-01T21:52:03;20.80;69.30
4090;DHT22;2059;48.538;12.146;2023-06-01T21:57:07;20.70;69.00
4090;DHT22;2059;48.538;12.146;2023-06-01T22:02:10;20.60;68.50
4090;DHT22;2059;48.538;12.146;2023-06-01T22:07:12;20.50;69.20
4090;DHT22;2059;48.538;12.146;2023-06-01T22:12:15;20.50;70.30
4090;DHT22;2059;48.538;12.146;2023-06-01T22:17:18;20.40;68.50
4090;DHT22;2059;48.538;12.146;2023-06-01T22:22:20;20.20;68.60
4090;DHT22;2059;48.538;12.146;2023-06-01T22:27:21;20.10;68.90
4090;DHT22;2059;48.538;12.146;2023-06-01T22:32:25;20.00;69.20
4090;DHT22;2059;48.538;12.146;2023-06-01T22:37:26;19.90;69.30
4090;DHT22;2059;48.538;12.146;2023-06-01T22:42:28;19.70;69.40
4090;DHT22;2059;48.538;12.146;2023-06-01T22:47:31;19.60;69.60
4090;DHT22;2059;48.538;12.146;2023-06-01T22:52:33;19.50;69.70
4090;DHT22;2059;48.538;12.146;2023-06-01T22:57:35;19.40;70.00
4090;DHT22;2059;48.538;12.146;2023-06-01T23:02:38;19.40;70.20
4090;DHT22;2059;48.538;12.146;2023-06-01T23:07:39;19.10;70.10
4090;DHT22;2059;48.538;12.146;2023-06-01T23:12:41;19.10;70.00
4090;DHT22;2059;48.538;12.146;2023-06-01T23:17:48;19.00;70.00
4090;DHT22;2059;48.538;12.146;2023-06-01T23:22:53;19.00;70.30
4090;DHT22;2059;48.538;12.146;2023-06-01T23:27:55;19.00;70.90
4090;DHT22;2059;48.538;12.146;2023-06-01T23:32:58;18.90;70.50
4090;DHT22;2059;48.538;12.146;2023-06-01T23:38:00;18.80;70.40
4090;DHT22;2059;48.538;12.146;2023-06-01T23:43:03;18.70;70.70
4090;DHT22;2059;48.538;12.146;2023-06-01T23:48:06;18.70;71.00
4090;DHT22;2059;48.538;12.146;2023-06-01T23:53:09;18.60;70.90
4090;DHT22;2059;48.538;12.146;2023-06-01T23:58:11;18.50;71.30
